createdAt,value
2023-01-17T00:00:36.880Z,94487.47
2023-01-17T00:03:04.722Z,94492.91
2023-01-17T00:05:50.188Z,94494.19
2023-01-17T00:08:55.120Z,94481.94
2023-01-17T00:11:21.973Z,94482.66
2023-01-17T00:13:48.608Z,94481.88
2023-01-17T00:16:15.584Z,94481.16
2023-01-17T00:19:02.272Z,94473.72
2023-01-17T00:21:47.914Z,94477.84
2023-01-17T00:24:33.543Z,94479.16
2023-01-17T00:27:12.465Z,94485.88
2023-01-17T00:29:39.202Z,94480.34
2023-01-17T00:32:05.951Z,94485.09
2023-01-17T00:34:33.440Z,94486.38
2023-01-17T00:37:00.451Z,94484.88
2023-01-17T00:39:27.369Z,94491.72
2023-01-17T00:41:54.125Z,94482.88
2023-01-17T00:44:39.964Z,94485.50
2023-01-17T00:47:25.427Z,94486.19
2023-01-17T00:50:10.983Z,94480.78
2023-01-17T00:52:56.404Z,94483.41
2023-01-17T00:55:41.828Z,94482.00
2023-01-17T00:58:27.722Z,94489.94
2023-01-17T01:01:13.118Z,94491.84
2023-01-17T01:03:58.776Z,94487.63
2023-01-17T01:06:44.206Z,94485.50
2023-01-17T01:09:29.451Z,94483.53
2023-01-17T01:12:14.806Z,94489.03
2023-01-17T01:14:59.938Z,94482.09
2023-01-17T01:17:45.459Z,94482.00
2023-01-17T01:20:30.585Z,94479.22
2023-01-17T01:23:15.960Z,94470.41
2023-01-17T01:26:01.424Z,94473.19
2023-01-17T01:28:46.919Z,94473.09
2023-01-17T01:31:32.332Z,94478.41
2023-01-17T01:33:59.380Z,94484.44
2023-01-17T01:36:26.178Z,94488.47
2023-01-17T01:38:54.535Z,94485.63
2023-01-17T01:41:21.345Z,94487.66
2023-01-17T01:43:53.746Z,94484.16
2023-01-17T01:46:35.934Z,94474.63
2023-01-17T01:49:03.438Z,94486.16
2023-01-17T01:51:38.935Z,94480.63
2023-01-17T01:54:19.910Z,94475.31
2023-01-17T01:56:47.857Z,94480.03
2023-01-17T01:59:16.447Z,94478.03
2023-01-17T02:01:43.554Z,94488.16
2023-01-17T02:04:11.043Z,94481.25
2023-01-17T02:06:41.413Z,94493.38
2023-01-17T02:09:11.456Z,94487.28
2023-01-17T02:11:39.145Z,94486.56
2023-01-17T02:14:08.660Z,94479.16
2023-01-17T02:16:47.994Z,94481.75
2023-01-17T02:19:27.175Z,94474.91
2023-01-17T02:21:59.890Z,94460.59
2023-01-17T02:24:42.379Z,94472.00
2023-01-17T02:27:18.374Z,94457.88
2023-01-17T02:29:54.867Z,94444.84
2023-01-17T02:32:42.872Z,94443.44
2023-01-17T02:35:14.265Z,94434.63
2023-01-17T02:37:46.895Z,94427.06
2023-01-17T02:40:18.764Z,94425.06
2023-01-17T02:42:54.492Z,94427.78
2023-01-17T02:45:21.537Z,94420.25
2023-01-17T02:47:48.468Z,94420.88
2023-01-17T02:50:23.626Z,94415.34
2023-01-17T02:53:20.827Z,94409.22
2023-01-17T02:56:05.780Z,94409.75
2023-01-17T02:58:51.199Z,94400.13
2023-01-17T03:01:47.979Z,94402.72
2023-01-17T03:04:28.370Z,94396.63
2023-01-17T03:07:00.526Z,94397.22
2023-01-17T03:09:27.998Z,94384.28
2023-01-17T03:11:54.924Z,94384.28
2023-01-17T03:14:21.794Z,94382.88
2023-01-17T03:16:48.715Z,94385.59
2023-01-17T03:19:16.140Z,94399.03
2023-01-17T03:21:43.063Z,94394.19
2023-01-17T03:24:12.353Z,94379.84
2023-01-17T03:26:47.180Z,94386.59
2023-01-17T03:29:16.720Z,94384.47
2023-01-17T03:31:43.516Z,94380.25
2023-01-17T03:34:10.259Z,94382.97
2023-01-17T03:36:36.953Z,94382.84
2023-01-17T03:39:04.239Z,94388.88
2023-01-17T03:41:30.946Z,94379.97
2023-01-17T03:43:57.755Z,94373.75
2023-01-17T03:46:27.467Z,94378.38
2023-01-17T03:48:54.496Z,94372.84
2023-01-17T03:51:21.172Z,94365.34
2023-01-17T03:53:48.210Z,94362.53
2023-01-17T03:56:15.006Z,94362.63
2023-01-17T03:58:42.639Z,94360.53
2023-01-17T04:01:09.824Z,94355.00
2023-01-17T04:03:36.712Z,94348.19
2023-01-17T04:06:03.847Z,94342.00
2023-01-17T04:08:30.725Z,94342.69
2023-01-17T04:10:57.470Z,94350.13
2023-01-17T04:13:24.540Z,94343.28
2023-01-17T04:15:51.451Z,94344.78
2023-01-17T04:18:19.832Z,94344.78
2023-01-17T04:20:47.158Z,94336.06
2023-01-17T04:23:14.100Z,94336.88
2023-01-17T04:25:40.949Z,94338.97
2023-01-17T04:28:07.665Z,94330.25
2023-01-17T04:30:34.433Z,94328.94
2023-01-17T04:33:01.318Z,94318.81
2023-01-17T04:35:30.403Z,94322.81
2023-01-17T04:37:57.381Z,94317.41
2023-01-17T04:40:24.031Z,94320.09
2023-01-17T04:42:51.615Z,94318.72
2023-01-17T04:45:18.595Z,94309.97
2023-01-17T04:47:45.610Z,94299.88
2023-01-17T04:50:12.662Z,94294.47
2023-01-17T04:52:39.609Z,94296.56
2023-01-17T04:55:06.936Z,94285.75
2023-01-17T04:57:33.652Z,94274.22
2023-01-17T05:00:00.390Z,94275.59
2023-01-17T05:02:27.406Z,94273.59
2023-01-17T05:04:54.267Z,94264.78
2023-01-17T05:07:21.140Z,94268.81
2023-01-17T05:09:48.112Z,94253.16
2023-01-17T05:12:15.022Z,94256.56
2023-01-17T05:14:41.846Z,94249.66
2023-01-17T05:17:11.207Z,94246.88
2023-01-17T05:19:37.994Z,94246.75
2023-01-17T05:22:14.849Z,94246.06
2023-01-17T05:24:43.107Z,94241.25
2023-01-17T05:27:10.712Z,94247.28
2023-01-17T05:29:37.540Z,94241.75
2023-01-17T05:32:06.077Z,94247.78
2023-01-17T05:34:33.448Z,94235.44
2023-01-17T05:37:00.189Z,94232.03
2023-01-17T05:39:27.243Z,94232.75
2023-01-17T05:41:54.096Z,94243.41
2023-01-17T05:44:21.051Z,94244.09
2023-01-17T05:46:47.920Z,94240.56
2023-01-17T05:49:14.671Z,94240.50
2023-01-17T05:51:41.511Z,94237.78
2023-01-17T05:54:08.460Z,94233.69
2023-01-17T05:56:35.544Z,94236.28
2023-01-17T05:59:02.548Z,94233.56
2023-01-17T06:01:29.467Z,94218.66
2023-01-17T06:03:56.470Z,94228.06
2023-01-17T06:06:23.428Z,94223.97
2023-01-17T06:08:50.559Z,94221.16
2023-01-17T06:11:18.573Z,94220.47
2023-01-17T06:13:45.729Z,94216.97
2023-01-17T06:16:12.631Z,94206.16
2023-01-17T06:18:39.601Z,94206.84
2023-01-17T06:21:06.463Z,94204.03
2023-01-17T06:23:33.598Z,94201.94
2023-01-17T06:26:03.637Z,94197.97
2023-01-17T06:28:30.605Z,94204.88
2023-01-17T06:30:57.505Z,94208.00
2023-01-17T06:33:24.598Z,94194.31
2023-01-17T06:35:52.592Z,94196.03
2023-01-17T06:38:19.779Z,94198.63
2023-01-17T06:40:46.804Z,94192.41
2023-01-17T06:43:13.783Z,94190.25
2023-01-17T06:45:40.707Z,94194.44
2023-01-17T06:48:07.960Z,94194.16
2023-01-17T06:50:35.062Z,94189.09
2023-01-17T06:53:04.664Z,94188.72
2023-01-17T06:55:33.913Z,94190.16
2023-01-17T06:58:02.911Z,94181.69
2023-01-17T07:00:31.267Z,94181.53
2023-01-17T07:02:58.530Z,94170.97
2023-01-17T07:05:25.592Z,94174.06
2023-01-17T07:07:53.636Z,94170.88
2023-01-17T07:10:21.508Z,94176.03
2023-01-17T07:12:48.566Z,94174.06
2023-01-17T07:15:15.498Z,94166.69
2023-01-17T07:17:42.409Z,94165.50
2023-01-17T07:20:10.016Z,94168.19
2023-01-17T07:22:37.957Z,94166.03
2023-01-17T07:25:05.461Z,94166.28
2023-01-17T07:27:33.629Z,94145.47
2023-01-17T07:30:00.806Z,94144.78
2023-01-17T07:32:28.395Z,94140.81
2023-01-17T07:34:57.657Z,94137.53
2023-01-17T07:37:26.301Z,94143.34
2023-01-17T07:39:53.900Z,94136.09
2023-01-17T07:42:23.222Z,94128.44
2023-01-17T07:44:51.074Z,94129.94
2023-01-17T07:47:17.977Z,94122.22
2023-01-17T07:49:44.871Z,94126.63
2023-01-17T07:52:11.822Z,94115.44
2023-01-17T07:54:38.780Z,94108.94
2023-01-17T07:57:06.246Z,94112.06
2023-01-17T07:59:34.714Z,94105.03
2023-01-17T08:02:02.364Z,94097.25
2023-01-17T08:04:34.889Z,94096.94
2023-01-17T08:07:02.480Z,94090.09
2023-01-17T08:09:32.386Z,94089.63
2023-01-17T08:11:59.421Z,94088.91
2023-01-17T08:14:26.181Z,94091.63
2023-01-17T08:16:53.328Z,94084.78
2023-01-17T08:19:20.639Z,94088.06
2023-01-17T08:21:47.745Z,94084.88
2023-01-17T08:24:14.801Z,94093.50
2023-01-17T08:26:41.778Z,94086.97
2023-01-17T08:29:09.395Z,94083.72
2023-01-17T08:31:37.003Z,94087.78
2023-01-17T08:34:04.503Z,94083.59
2023-01-17T08:36:31.509Z,94085.63
2023-01-17T08:38:58.490Z,94084.69
2023-01-17T08:41:27.506Z,94088.59
2023-01-17T08:43:54.415Z,94096.50
2023-01-17T08:46:21.324Z,94094.50
2023-01-17T08:48:48.158Z,94092.16
2023-01-17T08:51:15.076Z,94096.94
2023-01-17T08:53:42.681Z,94090.66
2023-01-17T08:56:09.361Z,94098.06
2023-01-17T08:58:36.466Z,94096.19
2023-01-17T09:01:05.013Z,94092.69
2023-01-17T09:03:33.928Z,94088.50
2023-01-17T09:06:09.213Z,94086.84
2023-01-17T09:08:36.375Z,94082.28
2023-01-17T09:11:13.672Z,94088.72
2023-01-17T09:13:40.846Z,94086.84
2023-01-17T09:16:08.353Z,94095.28
2023-01-17T09:18:36.640Z,94096.75
2023-01-17T09:21:11.799Z,94092.28
2023-01-17T09:23:39.164Z,94090.84
2023-01-17T09:26:06.317Z,94092.03
2023-01-17T09:28:43.835Z,94096.13
2023-01-17T09:31:10.839Z,94085.09
2023-01-17T09:33:38.547Z,94087.06
2023-01-17T09:36:05.864Z,94096.66
2023-01-17T09:38:32.970Z,94098.41
2023-01-17T09:41:01.788Z,94097.72
2023-01-17T09:43:35.251Z,94090.66
2023-01-17T09:46:03.128Z,94095.91
2023-01-17T09:48:37.865Z,94092.25
2023-01-17T09:51:13.649Z,94093.06
2023-01-17T09:53:41.784Z,94086.13
2023-01-17T09:56:22.942Z,94095.94
2023-01-17T09:58:53.241Z,94100.19
2023-01-17T10:01:26.722Z,94096.09
2023-01-17T10:04:12.232Z,94093.09
2023-01-17T10:07:09.648Z,94096.88
2023-01-17T10:09:53.323Z,94105.47
2023-01-17T10:12:57.545Z,94101.69
2023-01-17T10:16:07.345Z,94103.50
2023-01-17T10:19:00.774Z,94088.63
2023-01-17T10:21:49.769Z,94082.53
2023-01-17T10:24:31.228Z,94086.44
2023-01-17T10:27:00.710Z,94071.22
2023-01-17T10:29:33.549Z,94067.91
2023-01-17T10:32:01.721Z,94069.22
2023-01-17T10:34:34.868Z,94061.81
2023-01-17T10:37:31.689Z,94055.63
2023-01-17T10:40:12.053Z,94049.13
2023-01-17T10:42:48.475Z,94041.59
2023-01-17T10:45:20.785Z,94035.44
2023-01-17T10:47:53.719Z,94027.06
2023-01-17T10:50:22.134Z,94033.63
2023-01-17T10:53:04.363Z,94023.81
2023-01-17T10:55:44.224Z,94018.88
2023-01-17T10:58:15.135Z,94016.63
2023-01-17T11:00:48.268Z,94002.84
2023-01-17T11:03:17.701Z,94000.63
2023-01-17T11:05:44.702Z,94002.72
2023-01-17T11:08:13.632Z,94006.03
2023-01-17T11:10:54.566Z,93997.78
2023-01-17T11:13:36.473Z,93999.78
2023-01-17T11:16:06.760Z,94003.03
2023-01-17T11:18:38.735Z,93990.63
2023-01-17T11:21:15.935Z,93985.47
2023-01-17T11:23:47.695Z,93975.16
2023-01-17T11:26:31.849Z,93972.19
2023-01-17T11:29:19.622Z,93966.78
2023-01-17T11:31:46.533Z,93955.78
2023-01-17T11:34:27.351Z,93953.31
2023-01-17T11:37:10.483Z,93940.16
2023-01-17T11:39:37.521Z,93948.81
2023-01-17T11:42:06.458Z,93953.78
2023-01-17T11:44:40.112Z,93951.63
2023-01-17T11:47:11.269Z,93948.31
2023-01-17T11:49:42.423Z,93947.34
2023-01-17T11:52:22.350Z,93944.47
2023-01-17T11:54:50.321Z,93935.03
2023-01-17T11:57:24.380Z,93933.88
2023-01-17T11:59:56.196Z,93931.25
2023-01-17T12:02:38.469Z,93924.13
2023-01-17T12:05:14.644Z,93916.34
2023-01-17T12:07:49.950Z,93919.66
2023-01-17T12:10:19.642Z,93905.00
2023-01-17T12:13:13.984Z,93906.34
2023-01-17T12:16:00.533Z,93900.19
2023-01-17T12:18:39.484Z,93895.47
2023-01-17T12:21:18.061Z,93894.91
2023-01-17T12:23:51.070Z,93894.97
2023-01-17T12:26:29.923Z,93886.38
2023-01-17T12:29:11.929Z,93880.09
2023-01-17T12:32:05.093Z,93879.97
2023-01-17T12:34:55.635Z,93873.13
2023-01-17T12:37:46.408Z,93867.31
2023-01-17T12:40:30.769Z,93859.78
2023-01-17T12:43:37.432Z,93858.34
2023-01-17T12:46:31.455Z,93854.53
2023-01-17T12:49:04.506Z,93851.47
2023-01-17T12:51:36.759Z,93850.00
2023-01-17T12:54:24.701Z,93843.72
2023-01-17T12:56:57.132Z,93842.81
2023-01-17T12:59:42.786Z,93840.09
2023-01-17T13:02:35.904Z,93839.63
2023-01-17T13:05:11.096Z,93840.75
2023-01-17T13:07:59.792Z,93842.19
2023-01-17T13:10:39.757Z,93838.41
2023-01-17T13:13:24.288Z,93840.50
2023-01-17T13:16:05.429Z,93846.97
2023-01-17T13:18:33.593Z,93854.63
2023-01-17T13:21:06.219Z,93849.50
2023-01-17T13:23:39.159Z,93852.88
2023-01-17T13:26:18.869Z,93860.56
2023-01-17T13:29:00.359Z,93859.53
2023-01-17T13:31:54.232Z,93856.94
2023-01-17T13:35:00.973Z,93852.72
2023-01-17T13:37:54.737Z,93849.28
2023-01-17T13:40:29.642Z,93847.06
2023-01-17T13:43:00.290Z,93843.13
2023-01-17T13:45:28.394Z,93847.69
2023-01-17T13:48:10.364Z,93858.75
2023-01-17T13:50:37.474Z,93853.78
2023-01-17T13:53:39.625Z,93858.06
2023-01-17T13:56:21.760Z,93851.06
2023-01-17T13:58:54.679Z,93858.88
2023-01-17T14:01:24.402Z,93857.72
2023-01-17T14:03:52.231Z,93854.81
2023-01-17T14:06:44.784Z,93853.91
2023-01-17T14:09:22.779Z,93860.28
2023-01-17T14:11:55.203Z,93860.97
2023-01-17T14:14:40.288Z,93860.75
2023-01-17T14:17:16.517Z,93871.94
2023-01-17T14:19:48.591Z,93872.44
2023-01-17T14:22:19.417Z,93874.97
2023-01-17T14:24:57.192Z,93868.06
2023-01-17T14:27:25.750Z,93880.66
2023-01-17T14:29:57.006Z,93875.06
2023-01-17T14:32:33.701Z,93876.56
2023-01-17T14:35:01.649Z,93879.06
2023-01-17T14:37:32.516Z,93877.25
2023-01-17T14:40:01.070Z,93876.75
2023-01-17T14:42:31.857Z,93880.84
2023-01-17T14:45:14.539Z,93878.94
2023-01-17T14:47:45.218Z,93885.63
2023-01-17T14:50:19.083Z,93882.56
2023-01-17T14:52:46.287Z,93889.13
2023-01-17T14:55:21.040Z,93890.13
2023-01-17T14:57:58.678Z,93886.34
2023-01-17T15:00:29.563Z,93887.94
2023-01-17T15:02:58.687Z,93885.75
2023-01-17T15:05:27.446Z,93894.63
2023-01-17T15:07:56.251Z,93895.91
2023-01-17T15:10:31.037Z,93902.72
2023-01-17T15:13:05.241Z,93899.53
2023-01-17T15:15:37.916Z,93901.59
2023-01-17T15:18:14.185Z,93890.81
2023-01-17T15:20:49.389Z,93893.63
2023-01-17T15:23:19.714Z,93892.22
2023-01-17T15:25:49.022Z,93893.81
2023-01-17T15:28:16.829Z,93896.91
2023-01-17T15:31:09.146Z,93891.91
2023-01-17T15:33:39.276Z,93889.91
2023-01-17T15:36:30.693Z,93890.31
2023-01-17T15:39:01.944Z,93893.09
2023-01-17T15:41:38.359Z,93897.25
2023-01-17T15:44:06.086Z,93897.56
2023-01-17T15:46:42.333Z,93894.66
2023-01-17T15:49:24.019Z,93896.53
2023-01-17T15:51:54.120Z,93897.63
2023-01-17T15:54:37.104Z,93901.59
2023-01-17T15:57:20.436Z,93905.13
2023-01-17T15:59:53.303Z,93895.91
2023-01-17T16:02:30.042Z,93903.19
2023-01-17T16:04:59.198Z,93901.72
2023-01-17T16:07:36.493Z,93898.91
2023-01-17T16:10:17.702Z,93900.69
2023-01-17T16:12:46.580Z,93897.28
2023-01-17T16:15:15.342Z,93895.91
2023-01-17T16:17:45.952Z,93908.41
2023-01-17T16:20:19.907Z,93903.50
2023-01-17T16:22:48.042Z,93907.59
2023-01-17T16:25:18.420Z,93907.00
2023-01-17T16:27:46.347Z,93915.78
2023-01-17T16:30:16.392Z,93912.91
2023-01-17T16:32:48.885Z,93914.34
2023-01-17T16:35:22.423Z,93909.13
2023-01-17T16:37:56.612Z,93905.38
2023-01-17T16:40:27.177Z,93902.72
2023-01-17T16:42:55.904Z,93915.19
2023-01-17T16:45:24.916Z,93906.59
2023-01-17T16:47:53.888Z,93915.38
2023-01-17T16:50:23.749Z,93926.84
2023-01-17T16:52:52.034Z,93919.31
2023-01-17T16:55:23.061Z,93913.69
2023-01-17T16:57:52.067Z,93920.88
2023-01-17T17:00:19.907Z,93924.53
2023-01-17T17:02:51.001Z,93922.13
2023-01-17T17:05:18.509Z,93918.41
2023-01-17T17:07:50.127Z,93920.69
2023-01-17T17:10:19.900Z,93914.94
2023-01-17T17:12:47.245Z,93924.63
2023-01-17T17:15:14.405Z,93926.91
2023-01-17T17:17:43.361Z,93924.38
2023-01-17T17:20:13.499Z,93923.16
2023-01-17T17:22:41.087Z,93928.03
2023-01-17T17:25:08.229Z,93930.13
2023-01-17T17:27:35.109Z,93932.94
2023-01-17T17:30:01.922Z,93924.91
2023-01-17T17:32:29.087Z,93925.72
2023-01-17T17:34:55.833Z,93936.59
2023-01-17T17:37:23.718Z,93929.25
2023-01-17T17:39:50.677Z,93932.06
2023-01-17T17:42:19.772Z,93936.25
2023-01-17T17:44:46.826Z,93944.47
2023-01-17T17:47:13.800Z,93939.13
2023-01-17T17:49:41.030Z,93934.53
2023-01-17T17:52:08.858Z,93939.31
2023-01-17T17:54:36.907Z,93942.72
2023-01-17T17:57:03.911Z,93936.69
2023-01-17T17:59:31.292Z,93936.78
2023-01-17T18:02:00.040Z,93940.28
2023-01-17T18:04:27.418Z,93951.19
2023-01-17T18:06:58.267Z,93951.19
2023-01-17T18:09:25.325Z,93956.25
2023-01-17T18:11:54.875Z,93957.63
2023-01-17T18:14:27.801Z,93959.03
2023-01-17T18:16:55.904Z,93957.13
2023-01-17T18:19:26.654Z,93953.81
2023-01-17T18:21:55.953Z,93952.41
2023-01-17T18:24:25.715Z,93967.31
2023-01-17T18:26:57.400Z,93966.63
2023-01-17T18:29:25.126Z,93964.81
2023-01-17T18:31:53.397Z,93966.00
2023-01-17T18:34:24.066Z,93970.72
2023-01-17T18:36:51.660Z,93975.00
2023-01-17T18:39:24.731Z,93972.13
2023-01-17T18:41:51.842Z,93975.44
2023-01-17T18:44:21.948Z,93977.53
2023-01-17T18:46:55.148Z,93979.66
2023-01-17T18:49:23.124Z,93976.13
2023-01-17T18:51:51.480Z,93978.94
2023-01-17T18:54:21.287Z,93979.66
2023-01-17T18:56:51.163Z,93972.13
2023-01-17T18:59:27.608Z,93968.13
2023-01-17T19:01:57.895Z,93973.63
2023-01-17T19:04:28.795Z,93978.41
2023-01-17T19:06:58.910Z,93986.53
2023-01-17T19:09:44.785Z,93985.94
2023-01-17T19:12:12.171Z,93988.53
2023-01-17T19:14:40.633Z,93990.72
2023-01-17T19:17:13.691Z,93990.72
2023-01-17T19:19:41.119Z,93992.75
2023-01-17T19:22:08.564Z,93992.81
2023-01-17T19:24:38.350Z,93988.09
2023-01-17T19:27:07.875Z,93993.50
2023-01-17T19:29:35.540Z,93997.00
2023-01-17T19:32:03.673Z,93992.28
2023-01-17T19:34:30.620Z,93993.63
2023-01-17T19:36:57.643Z,93995.63
2023-01-17T19:39:27.196Z,94002.44
2023-01-17T19:41:54.132Z,94005.13
2023-01-17T19:44:21.052Z,94004.44
2023-01-17T19:46:48.814Z,94007.84
2023-01-17T19:49:19.805Z,93998.31
2023-01-17T19:51:46.792Z,94001.13
2023-01-17T19:54:15.262Z,93997.78
2023-01-17T20:44:12.923Z,94015.34
2023-01-17T21:05:46.400Z,94022.94
2023-01-17T21:49:17.400Z,94038.81
2023-01-17T22:23:15.834Z,94077.94
2023-01-17T22:25:42.884Z,94076.50
2023-01-17T22:28:09.683Z,94080.00
2023-01-17T22:30:37.352Z,94079.31
2023-01-17T22:33:04.371Z,94087.53
2023-01-17T22:35:31.265Z,94086.91
2023-01-17T22:37:58.217Z,94086.91
2023-01-17T22:40:26.298Z,94090.91
2023-01-17T22:42:53.235Z,94095.63
2023-01-17T22:45:20.202Z,94100.97
2023-01-17T22:47:46.893Z,94092.84
2023-01-17T22:50:13.850Z,94099.66
2023-01-17T22:52:40.752Z,94098.88
2023-01-17T22:55:07.873Z,94100.78
2023-01-17T22:57:34.781Z,94109.59
2023-01-17T23:00:01.722Z,94112.41
2023-01-17T23:02:28.390Z,94115.19
2023-01-17T23:04:55.203Z,94109.88
2023-01-17T23:07:26.461Z,94112.56
2023-01-17T23:09:53.657Z,94118.78
2023-01-17T23:12:20.383Z,94124.19
2023-01-17T23:15:05.856Z,94130.03
2023-01-17T23:17:51.620Z,94125.94
2023-01-17T23:20:18.624Z,94129.94
2023-01-17T23:22:45.496Z,94121.66
2023-01-17T23:25:14.195Z,94124.25
2023-01-17T23:28:04.224Z,94122.94
2023-01-17T23:30:37.457Z,94122.84
2023-01-17T23:33:13.253Z,94130.97
2023-01-17T23:35:43.008Z,94135.75
2023-01-17T23:38:26.551Z,94131.03
2023-01-17T23:41:12.506Z,94130.34
2023-01-17T23:43:39.443Z,94141.09
2023-01-17T23:46:11.726Z,94137.69
2023-01-17T23:48:38.643Z,94141.78
2023-01-17T23:51:08.342Z,94147.13
2023-01-17T23:53:36.750Z,94147.00
2023-01-17T23:56:21.663Z,94147.69
2023-01-17T23:58:48.632Z,94148.41
